Time;durP1;ratioP1;P1;durP2;ratioP2;P2;SDS_P1;SDS_P2;PMS_P1;PMS_P2;Temp;Humidity;BMP_temperature;BMP_pressure;BME280_temperature;BME280_humidity;BME280_pressure;Samples;Min_cycle;Max_cycle;Signal;HPM_P1;HPM_P2
2021/05/31 00:02:20;;;;;;;18.37;13.30;;;;;;;-144.99;87.87;52395.09;5019008;28;20305;-72
2021/05/31 00:04:54;;;;;;;18.20;13.27;;;;;;;-144.99;88.05;52378.78;5017810;28;20205;-72
2021/05/31 00:07:29;;;;;;;15.60;10.53;;;;;;;-144.99;88.06;52382.88;5016213;28;20206;-72
2021/05/31 00:10:03;;;;;;;17.83;12.47;;;;;;;-144.99;88.03;52370.63;5013689;28;20258;-72
2021/05/31 00:12:37;;;;;;;16.47;13.77;;;;;;;-144.99;87.86;52382.88;5016795;28;20359;-72
2021/05/31 00:15:11;;;;;;;21.20;12.20;;;;;;;-144.99;87.63;52342.09;5020510;28;20704;-73
2021/05/31 00:17:43;;;;;;;13.23;11.60;;;;;;;-144.99;87.51;52399.19;5022595;28;20218;-73
2021/05/31 00:20:16;;;;;;;13.30;11.90;;;;;;;-144.99;87.58;52382.88;5010624;28;20203;-74
2021/05/31 00:22:51;;;;;;;14.83;11.23;;;;;;;-144.99;87.63;52395.09;5021465;28;20214;-74
2021/05/31 00:25:23;;;;;;;17.23;11.73;;;;;;;-144.99;87.39;52395.09;5018498;28;20296;-73
2021/05/31 00:27:54;;;;;;;16.73;10.33;;;;;;;-144.99;87.31;52378.78;5017803;28;20248;-73
2021/05/31 00:30:30;;;;;;;17.97;11.47;;;;;;;-144.99;87.27;52415.47;5012879;28;20456;-73
2021/05/31 00:33:05;;;;;;;14.50;10.33;;;;;;;-144.99;86.96;52362.50;5011508;28;20212;-72
2021/05/31 00:35:36;;;;;;;16.50;11.50;;;;;;;-144.99;87.00;52382.88;5011198;28;20294;-73
2021/05/31 00:38:11;;;;;;;22.87;11.67;;;;;;;-144.99;86.97;52346.19;5026603;28;20212;-74
2021/05/31 00:40:43;;;;;;;18.70;14.17;;;;;;;-144.99;86.94;52378.78;5021059;28;20238;-73
2021/05/31 00:43:17;;;;;;;19.53;13.50;;;;;;;-144.99;86.88;52354.34;5012894;28;20215;-73
2021/05/31 00:45:54;;;;;;;18.13;13.53;;;;;;;-144.99;87.05;52374.72;5017231;28;20209;-73
2021/05/31 00:48:28;;;;;;;14.53;11.60;;;;;;;-144.99;87.09;52407.31;5021675;28;20285;-73
2021/05/31 00:51:02;;;;;;;18.10;11.20;;;;;;;-144.99;87.19;52376.75;5014966;28;20234;-73
2021/05/31 00:53:37;;;;;;;17.57;13.00;;;;;;;-144.99;87.29;52333.94;5018810;28;20214;-71
2021/05/31 00:56:12;;;;;;;18.47;12.03;;;;;;;-144.99;87.28;52395.09;5015649;28;20264;-71
2021/05/31 00:58:46;;;;;;;17.10;11.17;;;;;;;-144.99;87.55;52386.94;5019626;28;20217;-72
2021/05/31 01:01:24;;;;;;;16.00;11.17;;;;;;;-144.99;87.69;52378.78;5018299;28;20231;-72
2021/05/31 01:03:59;;;;;;;13.97;10.23;;;;;;;-144.99;87.69;52358.41;5015710;28;20290;-73
2021/05/31 01:06:37;;;;;;;15.57;11.57;;;;;;;-144.99;87.84;52358.41;5017198;28;20283;-73
2021/05/31 01:09:24;;;;;;;20.67;12.03;;;;;;;-144.99;87.96;52386.94;5017797;28;20210;-73
2021/05/31 01:12:07;;;;;;;18.13;12.13;;;;;;;-144.99;87.97;52374.72;5015333;28;20226;-73
2021/05/31 01:14:49;;;;;;;13.50;11.33;;;;;;;-144.99;88.17;52360.44;5020905;28;20225;-72
2021/05/31 01:17:30;;;;;;;13.27;11.60;;;;;;;-144.99;88.19;52397.13;5016941;28;20294;-72
2021/05/31 01:20:24;;;;;;;21.03;12.60;;;;;;;-144.99;88.23;52382.88;5025704;28;20218;-72
2021/05/31 01:23:00;;;;;;;17.13;11.97;;;;;;;-144.99;88.32;52384.91;5028396;28;20210;-72
2021/05/31 01:25:44;;;;;;;20.17;12.60;;;;;;;-144.99;88.46;52374.72;5019850;28;20293;-72
2021/05/31 01:28:39;;;;;;;17.63;13.27;;;;;;;-144.99;88.55;52368.59;5019023;28;20199;-73
2021/05/31 01:31:12;;;;;;;18.47;14.07;;;;;;;-144.99;88.56;52362.50;5008952;28;20234;-73
2021/05/31 01:33:48;;;;;;;21.17;16.43;;;;;;;-144.99;88.80;52423.63;5022554;28;20835;-73
2021/05/31 01:36:24;;;;;;;20.27;15.27;;;;;;;-144.99;89.16;52368.59;5020808;28;20210;-73
2021/05/31 01:39:01;;;;;;;18.03;13.43;;;;;;;-144.99;89.07;52364.53;5015064;28;20611;-73
2021/05/31 01:41:37;;;;;;;14.63;12.33;;;;;;;-144.99;89.15;52362.50;5029383;28;20253;-72
2021/05/31 01:44:10;;;;;;;17.53;12.93;;;;;;;-144.99;89.20;52382.88;5034866;28;20302;-73
2021/05/31 01:46:46;;;;;;;19.03;11.57;;;;;;;-144.99;89.20;52386.94;5026698;28;20829;-73
2021/05/31 01:49:22;;;;;;;21.70;14.20;;;;;;;-144.99;89.49;52391.03;5013907;28;20211;-73
2021/05/31 01:51:57;;;;;;;19.83;12.80;;;;;;;-144.99;89.14;52378.78;5010375;28;20300;-73
2021/05/31 01:54:32;;;;;;;18.37;12.67;;;;;;;-144.99;89.20;52368.59;5022652;28;20666;-73
2021/05/31 01:57:08;;;;;;;16.47;12.73;;;;;;;-144.99;89.18;52399.19;5015491;28;20207;-74
2021/05/31 01:59:54;;;;;;;17.90;13.93;;;;;;;-144.99;89.25;52348.22;5022211;28;20211;-74
2021/05/31 02:02:29;;;;;;;18.27;12.07;;;;;;;-144.99;88.82;52372.69;5018629;28;20277;-74
2021/05/31 02:05:04;;;;;;;17.00;12.47;;;;;;;-144.99;88.56;52386.94;5010015;28;20842;-74
2021/05/31 02:07:39;;;;;;;17.80;13.43;;;;;;;-144.99;88.55;52368.59;5007730;28;20209;-74
2021/05/31 02:10:12;;;;;;;19.23;13.43;;;;;;;-144.99;88.74;52358.41;5019984;28;20305;-74
2021/05/31 02:12:53;;;;;;;20.47;13.30;;;;;;;-144.99;88.79;52366.56;5020622;28;20238;-74
2021/05/31 02:15:38;;;;;;;19.17;14.97;;;;;;;-144.99;88.77;52388.97;5021312;28;20207;-75
2021/05/31 02:18:18;;;;;;;21.67;14.57;;;;;;;-144.99;88.99;52403.25;5009698;28;20199;-75
2021/05/31 02:20:55;;;;;;;18.20;12.03;;;;;;;-144.99;89.02;52401.22;5022181;28;20228;-75
2021/05/31 02:23:31;;;;;;;20.80;14.57;;;;;;;-144.99;89.23;52378.78;5018782;28;20207;-77
2021/05/31 02:26:06;;;;;;;15.53;11.90;;;;;;;-144.99;89.42;52384.91;5018437;28;20212;-74
2021/05/31 02:28:41;;;;;;;20.10;15.30;;;;;;;-144.99;90.10;52382.88;5012475;28;20335;-74
2021/05/31 02:31:15;;;;;;;18.73;14.87;;;;;;;-144.99;90.65;52378.78;5012174;28;20250;-73
2021/05/31 02:33:51;;;;;;;17.97;12.60;;;;;;;-144.99;90.58;52384.91;5013601;28;20211;-73
2021/05/31 02:36:25;;;;;;;24.03;15.27;;;;;;;-144.99;91.02;52395.09;5018765;28;20567;-73
2021/05/31 02:38:56;;;;;;;21.27;14.30;;;;;;;-144.99;91.19;52407.31;5018282;28;20194;-73
2021/05/31 02:41:31;;;;;;;19.70;13.93;;;;;;;-144.99;91.70;52382.88;5017313;28;20231;-73
2021/05/31 02:44:06;;;;;;;24.70;16.47;;;;;;;-144.99;92.08;52399.19;5014663;28;20284;-73
2021/05/31 02:46:41;;;;;;;20.90;14.93;;;;;;;-144.99;91.90;52370.63;5007092;28;20213;-73
2021/05/31 02:49:16;;;;;;;21.00;16.47;;;;;;;-144.99;92.05;52386.94;5013742;28;20272;-72
2021/05/31 02:51:50;;;;;;;23.17;14.70;;;;;;;-144.99;92.04;52382.88;5020244;28;20230;-73
2021/05/31 02:54:25;;;;;;;20.67;13.47;;;;;;;-144.99;92.08;52374.72;5019248;28;20224;-73
2021/05/31 02:56:56;;;;;;;22.23;16.47;;;;;;;-144.99;92.23;52382.88;5015932;28;20212;-73
2021/05/31 02:59:31;;;;;;;18.60;13.50;;;;;;;-144.99;92.33;52342.09;5012636;28;20203;-73
2021/05/31 03:02:10;;;;;;;22.33;15.57;;;;;;;-144.99;92.44;52401.22;5019227;28;20236;-73
2021/05/31 03:04:45;;;;;;;23.50;14.63;;;;;;;-144.99;92.55;52317.66;5018314;28;20298;-72
2021/05/31 03:07:14;;;;;;;20.30;14.27;;;;;;;-144.99;93.02;52382.88;5008997;28;20210;-73
2021/05/31 03:09:48;;;;;;;20.73;16.23;;;;;;;-144.99;92.86;52407.31;5021692;28;20291;-72
2021/05/31 03:12:20;;;;;;;18.90;13.20;;;;;;;-144.99;92.76;52366.56;5017028;28;20313;-74
2021/05/31 03:14:55;;;;;;;21.17;17.40;;;;;;;-144.99;92.81;52360.44;5023516;28;20229;-73
2021/05/31 03:17:29;;;;;;;23.47;16.23;;;;;;;-144.99;92.74;52380.84;5019992;28;20201;-73
2021/05/31 03:20:04;;;;;;;20.60;16.33;;;;;;;-144.99;92.70;52386.94;5018398;28;20210;-73
2021/05/31 03:22:38;;;;;;;24.37;17.57;;;;;;;-144.99;92.84;52395.09;5018941;28;20205;-73
2021/05/31 03:25:14;;;;;;;21.30;16.33;;;;;;;-144.99;92.68;52386.94;5015796;28;20222;-73
2021/05/31 03:27:49;;;;;;;24.43;16.00;;;;;;;-144.99;92.59;52368.59;5012165;28;20218;-73
2021/05/31 03:30:24;;;;;;;41.30;24.33;;;;;;;-144.99;92.73;52374.72;5013511;28;20301;-74
2021/05/31 03:32:57;;;;;;;33.57;21.00;;;;;;;-144.99;92.75;52372.69;5011367;28;20207;-75
2021/05/31 03:35:31;;;;;;;41.47;24.43;;;;;;;-144.99;92.77;52374.72;5041157;28;20237;-74
2021/05/31 03:38:06;;;;;;;29.50;19.70;;;;;;;-144.99;92.63;52439.94;5022498;28;20724;-74
2021/05/31 03:40:40;;;;;;;20.37;17.07;;;;;;;-144.99;92.59;52401.22;5016400;28;20279;-73
2021/05/31 03:43:15;;;;;;;24.13;16.77;;;;;;;-144.99;92.56;52370.63;5007293;28;20222;-73
2021/05/31 03:45:49;;;;;;;24.57;16.20;;;;;;;-144.99;92.47;52378.78;5012314;28;20206;-72
2021/05/31 03:48:37;;;;;;;18.20;13.93;;;;;;;-144.99;92.32;52382.88;5019682;28;20209;-72
2021/05/31 03:51:13;;;;;;;27.80;16.70;;;;;;;-144.99;92.32;52331.91;5014389;28;20230;-72
2021/05/31 03:53:47;;;;;;;27.50;18.97;;;;;;;-144.99;92.15;52395.09;5021257;28;20296;-72
2021/05/31 03:56:22;;;;;;;28.43;16.40;;;;;;;-144.99;92.16;52391.03;5017132;28;20556;-73
2021/05/31 03:58:57;;;;;;;20.60;16.23;;;;;;;-144.99;91.99;52325.81;5009741;28;20683;-73
2021/05/31 04:01:29;;;;;;;26.57;16.83;;;;;;;-144.99;91.84;52360.44;5020781;28;20533;-73
2021/05/31 04:04:06;;;;;;;19.70;14.47;;;;;;;-144.99;91.67;52358.41;5013224;28;20278;-73
2021/05/31 04:06:55;;;;;;;17.73;14.27;;;;;;;-144.99;91.42;52366.56;5020389;28;20205;-73
2021/05/31 04:12:20;;;;;;;41.80;20.17;;;;;;;-144.99;91.14;52382.88;5012936;28;20235;-73
2021/05/31 04:14:51;;;;;;;21.97;15.77;;;;;;;-144.99;91.04;52386.94;5022295;28;20288;-72
2021/05/31 04:17:20;;;;;;;22.47;14.70;;;;;;;-144.99;90.87;52388.97;5014667;28;20206;-73
2021/05/31 04:19:53;;;;;;;18.87;13.73;;;;;;;-144.99;90.54;52374.72;5018326;28;20263;-73
2021/05/31 04:22:27;;;;;;;16.53;11.80;;;;;;;-144.99;90.49;52413.44;5020243;28;20226;-73
2021/05/31 04:24:59;;;;;;;20.70;15.10;;;;;;;-144.99;90.47;52370.63;5016739;28;20266;-73
2021/05/31 04:27:31;;;;;;;22.00;17.70;;;;;;;-144.99;90.44;52370.63;5017341;28;20653;-72
2021/05/31 04:30:06;;;;;;;21.67;13.73;;;;;;;-144.99;90.10;52409.38;5012650;28;20229;-73
2021/05/31 04:32:41;;;;;;;16.20;13.03;;;;;;;-144.99;89.88;52352.28;5014746;28;20220;-74
2021/05/31 04:35:17;;;;;;;18.80;12.90;;;;;;;-144.99;89.73;52370.63;5020429;28;20211;-74
2021/05/31 04:37:56;;;;;;;20.03;14.03;;;;;;;-144.99;89.46;52407.31;5015288;28;20237;-73
2021/05/31 04:40:28;;;;;;;15.23;11.47;;;;;;;-144.99;89.16;52366.56;5017746;28;20264;-73
2021/05/31 04:43:03;;;;;;;14.87;11.50;;;;;;;-144.99;89.05;52362.50;5009208;28;20215;-73
2021/05/31 04:45:35;;;;;;;16.23;12.73;;;;;;;-144.99;88.79;52354.34;5020140;28;20585;-73
2021/05/31 04:48:07;;;;;;;17.63;14.37;;;;;;;-144.99;88.34;52366.56;5016335;28;20210;-73
2021/05/31 04:50:40;;;;;;;15.27;13.10;;;;;;;-144.99;88.20;52329.88;5006944;28;20250;-73
2021/05/31 04:53:15;;;;;;;21.93;13.70;;;;;;;-144.99;88.05;52382.88;5017557;28;20202;-73
2021/05/31 04:55:49;;;;;;;17.90;13.93;;;;;;;-144.99;87.51;52350.25;5016914;28;20218;-73
2021/05/31 04:58:21;;;;;;;16.97;11.77;;;;;;;-144.99;87.02;52350.25;5021492;28;20341;-75
2021/05/31 05:00:53;;;;;;;19.73;13.63;;;;;;;-144.99;86.34;52321.72;5015713;28;20609;-76
2021/05/31 05:03:27;;;;;;;20.40;12.93;;;;;;;-144.99;86.12;52366.56;5018838;28;20696;-76
2021/05/31 05:06:06;;;;;;;17.13;12.83;;;;;;;-144.99;85.87;52325.81;5008061;28;20205;-77
2021/05/31 05:08:41;;;;;;;16.97;13.37;;;;;;;-144.99;85.21;52333.94;5013923;28;20273;-77
2021/05/31 05:11:15;;;;;;;18.37;12.40;;;;;;;-144.99;84.87;52376.75;5016621;28;20369;-74
2021/05/31 05:13:52;;;;;;;12.07;10.00;;;;;;;-144.99;84.16;52309.50;5013155;28;20281;-74
2021/05/31 05:16:27;;;;;;;14.43;10.87;;;;;;;-144.99;83.41;52346.19;5019326;28;20234;-74
2021/05/31 05:19:01;;;;;;;18.73;12.57;;;;;;;-144.99;82.90;52333.94;5006333;28;20209;-74
2021/05/31 05:21:35;;;;;;;16.10;10.27;;;;;;;-144.99;82.11;52340.06;5015317;28;20245;-74
2021/05/31 05:24:11;;;;;;;12.53;9.30;;;;;;;-144.99;81.28;52370.63;5020366;28;20206;-74
2021/05/31 05:26:46;;;;;;;14.57;10.87;;;;;;;-144.99;80.43;52317.66;5020155;28;20754;-74
2021/05/31 05:29:21;;;;;;;15.13;11.57;;;;;;;-144.99;79.19;52297.25;5015637;28;20580;-73
2021/05/31 05:31:55;;;;;;;13.13;9.87;;;;;;;-144.99;79.14;52333.94;5017778;28;20297;-74
2021/05/31 05:34:30;;;;;;;12.83;8.97;;;;;;;-144.99;78.49;52309.50;5020415;28;20260;-73
2021/05/31 05:37:11;;;;;;;15.37;10.23;;;;;;;-144.99;78.12;52307.47;5015381;28;20210;-75
2021/05/31 05:45:45;;;;;;;14.03;8.70;;;;;;;-144.99;75.71;52301.34;5008986;28;20572;-75
2021/05/31 05:48:19;;;;;;;9.60;8.17;;;;;;;-144.99;74.50;52336.00;5015743;28;20244;-74
2021/05/31 05:51:04;;;;;;;10.33;7.77;;;;;;;-144.99;74.17;52340.06;5008545;28;20244;-75
2021/05/31 05:53:41;;;;;;;9.90;8.17;;;;;;;-144.99;73.40;52362.50;5020377;28;20210;-74
2021/05/31 05:56:14;;;;;;;12.50;8.27;;;;;;;-144.99;72.71;52327.84;5020310;28;20463;-74
2021/05/31 05:58:47;;;;;;;10.27;8.10;;;;;;;-144.99;72.70;52338.03;5020466;28;20218;-74
2021/05/31 06:01:21;;;;;;;9.43;6.10;;;;;;;-144.99;71.62;52336.00;5020376;28;20226;-75
2021/05/31 06:03:57;;;;;;;13.90;8.03;;;;;;;-144.99;69.85;52303.38;5015222;28;20220;-75
2021/05/31 06:06:32;;;;;;;12.10;6.83;;;;;;;-144.99;68.27;52311.53;5017458;28;20249;-74
2021/05/31 06:09:08;;;;;;;11.30;7.23;;;;;;;-144.99;68.47;52354.34;5021238;28;20210;-73
2021/05/31 06:11:43;;;;;;;12.87;7.70;;;;;;;-144.99;68.49;52338.03;5011968;28;20258;-74
2021/05/31 06:14:14;;;;;;;9.80;8.00;;;;;;;-144.99;68.48;52299.31;5023425;28;20212;-73
2021/05/31 06:16:49;;;;;;;13.63;6.77;;;;;;;-144.99;68.54;52323.75;5023340;28;20446;-73
2021/05/31 06:19:24;;;;;;;11.93;7.70;;;;;;;-144.99;68.93;52285.03;5025693;28;20203;-73
2021/05/31 06:21:58;;;;;;;11.10;6.90;;;;;;;-144.99;68.55;52333.94;5019393;28;20248;-73
2021/05/31 06:24:29;;;;;;;8.63;6.23;;;;;;;-144.99;66.63;52352.28;5020424;28;20621;-72
2021/05/31 06:27:03;;;;;;;12.17;7.97;;;;;;;-144.99;65.92;52317.66;5027602;28;20754;-72
2021/05/31 06:29:38;;;;;;;13.33;7.47;;;;;;;-144.99;66.14;52305.41;5020210;28;20261;-73
2021/05/31 06:32:13;;;;;;;9.33;7.20;;;;;;;-144.99;66.18;52299.31;5018597;28;20243;-74
2021/05/31 06:34:47;;;;;;;14.50;6.47;;;;;;;-144.99;65.88;52329.88;5018856;28;20251;-74
2021/05/31 06:37:19;;;;;;;9.17;6.80;;;;;;;-144.99;66.36;52315.59;5021192;28;20660;-74
2021/05/31 06:39:56;;;;;;;15.57;7.97;;;;;;;-144.99;66.67;52309.50;5021407;28;20202;-74
2021/05/31 06:42:30;;;;;;;10.80;7.33;;;;;;;-144.99;66.16;52331.91;5014636;28;20265;-74
2021/05/31 06:45:05;;;;;;;12.13;7.10;;;;;;;-144.99;65.79;52307.47;5008971;28;20239;-74
2021/05/31 06:47:39;;;;;;;9.97;5.13;;;;;;;-144.99;65.60;52264.66;5015110;28;20224;-74
2021/05/31 06:50:15;;;;;;;10.83;7.70;;;;;;;-144.99;65.62;52268.72;5023598;28;20305;-74
2021/05/31 06:52:51;;;;;;;16.97;7.97;;;;;;;-144.99;64.74;52262.63;5016246;28;20711;-74
2021/05/31 06:55:29;;;;;;;10.77;7.63;;;;;;;-144.99;62.11;52262.63;5020747;28;20226;-74
2021/05/31 06:58:05;;;;;;;12.67;8.13;;;;;;;-144.99;61.39;52305.41;5011322;28;20206;-74
2021/05/31 07:00:39;;;;;;;9.27;6.13;;;;;;;-144.99;60.47;52293.19;5016753;28;20731;-74
2021/05/31 07:03:14;;;;;;;12.20;9.43;;;;;;;-144.99;59.77;52278.91;5022430;28;20202;-75
2021/05/31 07:05:49;;;;;;;9.07;5.27;;;;;;;-144.99;58.65;52291.16;5024200;28;20210;-76
2021/05/31 07:08:25;;;;;;;6.47;5.00;;;;;;;-144.99;59.17;52293.19;5014186;28;20281;-75
2021/05/31 07:11:10;;;;;;;9.90;7.03;;;;;;;-144.99;59.31;52272.81;5008837;28;20681;-76
2021/05/31 07:13:46;;;;;;;12.27;7.37;;;;;;;-144.99;59.11;52252.44;5014279;28;20229;-75
2021/05/31 07:16:21;;;;;;;7.53;5.10;;;;;;;-144.99;59.01;52280.97;5022780;28;20543;-75
2021/05/31 07:18:56;;;;;;;11.53;7.57;;;;;;;-144.99;58.32;52295.22;5018007;28;20272;-74
2021/05/31 07:21:30;;;;;;;11.13;5.43;;;;;;;-144.99;57.24;52272.81;5014748;28;20238;-76
2021/05/31 07:24:05;;;;;;;10.70;6.53;;;;;;;-144.99;57.17;52287.06;5014995;28;20295;-75
2021/05/31 07:26:44;;;;;;;7.23;4.27;;;;;;;-144.99;56.47;52280.97;5019384;28;20213;-75
2021/05/31 07:29:18;;;;;;;5.53;3.93;;;;;;;-144.99;55.97;52293.19;5011744;28;20209;-76
2021/05/31 07:31:53;;;;;;;9.90;5.67;;;;;;;-144.99;54.92;52313.56;5013252;28;20375;-76
2021/05/31 07:34:28;;;;;;;9.13;6.43;;;;;;;-144.99;55.21;52268.72;5041098;22;20240;-73
2021/05/31 07:37:03;;;;;;;5.10;3.37;;;;;;;-144.99;53.25;52260.56;5002019;28;20293;-72
2021/05/31 07:39:37;;;;;;;5.63;3.93;;;;;;;-144.99;51.81;52248.34;5017709;28;20302;-73
2021/05/31 07:42:14;;;;;;;7.70;4.30;;;;;;;-144.99;51.18;52264.66;5022114;28;20612;-74
2021/05/31 07:44:48;;;;;;;7.33;3.37;;;;;;;-144.99;51.92;52244.28;5015148;28;20234;-74
2021/05/31 07:47:23;;;;;;;5.97;3.30;;;;;;;-144.99;51.53;52252.44;5019708;28;20199;-72
2021/05/31 07:49:58;;;;;;;4.97;3.13;;;;;;;-144.99;50.57;52236.13;5015840;28;20647;-72
2021/05/31 07:52:32;;;;;;;8.07;3.83;;;;;;;-144.99;50.14;52240.19;5022134;28;20280;-72
2021/05/31 07:55:09;;;;;;;7.33;3.30;;;;;;;-144.99;49.64;52260.56;5016736;28;20293;-74
2021/05/31 07:57:47;;;;;;;8.20;4.27;;;;;;;-144.99;49.62;52293.19;5022235;28;20212;-74
2021/05/31 08:00:24;;;;;;;8.20;4.73;;;;;;;-144.99;49.98;52278.91;4999769;28;20212;-72
2021/05/31 08:02:56;;;;;;;7.00;3.03;;;;;;;-144.99;48.05;52248.34;5019635;28;20274;-72
2021/05/31 08:05:30;;;;;;;3.77;2.60;;;;;;;-144.99;46.97;52301.34;5017151;28;20249;-70
2021/05/31 08:08:05;;;;;;;11.77;4.97;;;;;;;-144.99;46.95;52285.03;5010493;28;20240;-74
2021/05/31 08:10:40;;;;;;;7.17;3.30;;;;;;;-144.99;48.12;52280.97;5012682;28;20322;-73
2021/05/31 08:13:15;;;;;;;4.53;2.77;;;;;;;-144.99;48.53;52276.88;5023066;28;20202;-74
2021/05/31 08:15:51;;;;;;;6.87;3.33;;;;;;;-144.99;48.71;52234.09;5012974;28;20208;-73
2021/05/31 08:18:26;;;;;;;8.93;3.93;;;;;;;-144.99;48.43;52252.44;5000549;28;20215;-74
2021/05/31 08:21:00;;;;;;;4.07;2.20;;;;;;;-144.99;47.64;52264.66;5009969;28;20209;-75
2021/05/31 08:23:35;;;;;;;7.63;2.47;;;;;;;-144.99;46.89;52240.19;5007346;28;21039;-76
2021/05/31 08:26:09;;;;;;;3.63;2.33;;;;;;;-144.99;45.42;52236.13;5003495;28;20202;-76
2021/05/31 08:28:42;;;;;;;4.37;2.40;;;;;;;-144.99;45.04;52232.03;5007100;28;20260;-75
2021/05/31 08:31:17;;;;;;;3.93;1.87;;;;;;;-144.99;43.65;52232.03;5006126;28;20235;-77
2021/05/31 08:33:51;;;;;;;4.43;2.50;;;;;;;-144.99;43.83;52244.28;5004304;28;20239;-75
2021/05/31 08:36:26;;;;;;;3.07;2.07;;;;;;;-144.99;44.28;52244.28;5007358;28;20220;-75
2021/05/31 08:39:01;;;;;;;5.23;2.70;;;;;;;-144.99;45.17;52244.28;5005500;28;20215;-74
2021/05/31 08:41:36;;;;;;;4.83;2.87;;;;;;;-144.99;45.10;52236.13;5001953;28;20224;-77
2021/05/31 08:44:12;;;;;;;6.33;2.30;;;;;;;-144.99;44.08;52254.47;5008108;28;20299;-75
2021/05/31 08:46:47;;;;;;;5.30;2.67;;;;;;;-144.99;42.24;52244.28;5008319;28;20243;-76
2021/05/31 08:49:26;;;;;;;4.60;1.90;;;;;;;-144.99;42.11;52256.50;5006546;28;20272;-74
2021/05/31 08:51:57;;;;;;;5.17;2.43;;;;;;;-144.99;42.88;52262.63;5008503;28;20218;-74
2021/05/31 08:54:32;;;;;;;5.23;2.10;;;;;;;-144.99;42.93;52276.88;5007665;28;20226;-74
2021/05/31 08:57:06;;;;;;;4.87;2.23;;;;;;;-144.99;43.24;52264.66;5004722;28;20198;-74
2021/05/31 08:59:42;;;;;;;6.47;2.40;;;;;;;-144.99;43.42;52268.72;5006308;28;20206;-74
2021/05/31 09:02:17;;;;;;;3.23;2.23;;;;;;;-144.99;43.37;52252.44;5002635;28;20216;-73
2021/05/31 09:04:57;;;;;;;4.07;2.40;;;;;;;-144.99;43.07;52248.34;5010619;28;20714;-73
2021/05/31 09:07:31;;;;;;;5.83;2.27;;;;;;;-144.99;42.81;52260.56;5008282;28;20238;-73
2021/05/31 09:10:08;;;;;;;7.87;2.83;;;;;;;-144.99;42.78;52244.28;5018645;28;20678;-74
2021/05/31 09:12:42;;;;;;;4.17;2.17;;;;;;;-144.99;42.42;52260.56;5009694;28;20760;-73
2021/05/31 09:15:20;;;;;;;4.90;2.37;;;;;;;-144.99;42.13;52207.59;5013718;28;20308;-75
2021/05/31 09:17:56;;;;;;;7.27;3.00;;;;;;;-144.99;41.98;52207.59;5031234;28;20317;-76
2021/05/31 09:20:30;;;;;;;6.30;2.93;;;;;;;-144.99;42.13;52205.53;5017239;28;20645;-74
2021/05/31 09:23:04;;;;;;;5.73;2.63;;;;;;;-144.99;41.71;52240.19;5003539;28;20217;-76
2021/05/31 09:25:35;;;;;;;5.80;2.90;;;;;;;-144.99;42.20;52209.63;5010158;28;20306;-74
2021/05/31 09:28:15;;;;;;;8.80;3.10;;;;;;;-144.99;42.60;52221.84;5011946;28;20299;-74
2021/05/31 09:30:51;;;;;;;4.83;2.93;;;;;;;-144.99;42.14;52199.44;5007861;28;20710;-75
2021/05/31 09:33:25;;;;;;;5.27;2.47;;;;;;;-144.99;41.98;52187.19;5009048;28;20212;-76
2021/05/31 09:36:07;;;;;;;3.53;2.20;;;;;;;-144.99;41.82;52199.44;5010386;28;20195;-76
2021/05/31 09:38:53;;;;;;;5.53;2.77;;;;;;;-144.99;42.09;52223.88;5009516;28;20210;-77
2021/05/31 09:41:33;;;;;;;6.13;2.70;;;;;;;-144.99;42.00;52191.28;5011573;28;20219;-75
2021/05/31 09:44:10;;;;;;;8.50;2.40;;;;;;;-144.99;41.28;52187.19;5014600;28;20232;-76
2021/05/31 09:46:48;;;;;;;6.70;2.70;;;;;;;-144.99;41.51;52232.03;5015988;28;20934;-76
2021/05/31 09:49:25;;;;;;;8.67;3.30;;;;;;;-144.99;41.60;52199.44;5014974;28;20221;-76
2021/05/31 09:52:02;;;;;;;7.37;2.10;;;;;;;-144.99;41.40;52207.59;5014615;28;20243;-75
2021/05/31 09:54:41;;;;;;;5.77;2.00;;;;;;;-144.99;41.31;52187.19;5012747;28;20255;-76
2021/05/31 09:57:22;;;;;;;9.13;2.87;;;;;;;-144.99;40.99;52215.75;5019887;28;20298;-75
2021/05/31 09:59:56;;;;;;;6.93;2.57;;;;;;;-144.99;41.67;52195.34;5021985;28;20258;-76
2021/05/31 10:02:46;;;;;;;4.70;2.40;;;;;;;-144.99;40.63;52172.94;5022956;28;20759;-76
2021/05/31 10:05:30;;;;;;;10.10;3.37;;;;;;;-144.99;40.94;52195.34;5022434;28;20225;-76
2021/05/31 10:08:27;;;;;;;5.73;3.03;;;;;;;-144.99;40.79;52191.28;5014856;28;20413;-75
2021/05/31 10:11:02;;;;;;;7.93;2.60;;;;;;;-144.99;41.33;52209.63;5021522;28;20230;-75
2021/05/31 10:13:32;;;;;;;3.33;2.17;;;;;;;-144.99;40.65;52170.91;5019731;28;20212;-76
2021/05/31 10:16:10;;;;;;;3.67;2.70;;;;;;;-144.99;40.67;52156.63;5012067;28;20218;-73
2021/05/31 10:18:48;;;;;;;7.57;2.90;;;;;;;-144.99;40.05;52168.84;5006664;28;20245;-76
2021/05/31 10:21:24;;;;;;;6.70;3.50;;;;;;;-144.99;39.53;52174.97;5021280;28;20638;-73
2021/05/31 10:23:59;;;;;;;8.43;2.77;;;;;;;-144.99;39.68;52121.97;5026320;28;20234;-77
2021/05/31 10:26:37;;;;;;;6.93;2.60;;;;;;;-144.99;39.59;52154.59;5025941;28;20229;-76
2021/05/31 10:29:12;;;;;;;3.53;2.20;;;;;;;-144.99;40.03;52140.31;5017060;28;20226;-74
2021/05/31 10:31:46;;;;;;;8.77;6.70;;;;;;;-144.99;41.10;52134.22;5012918;28;20376;-73
2021/05/31 10:34:26;;;;;;;5.93;3.33;;;;;;;-144.99;39.20;52132.19;5027418;28;20253;-74
2021/05/31 10:37:01;;;;;;;4.13;2.70;;;;;;;-144.99;39.17;52179.06;5014357;28;20208;-74
2021/05/31 10:39:38;;;;;;;5.63;3.07;;;;;;;-144.99;40.06;52166.81;5016409;28;20287;-73
2021/05/31 10:42:11;;;;;;;6.07;3.67;;;;;;;-144.99;39.94;52119.94;5024848;28;20293;-73
2021/05/31 10:44:47;;;;;;;2.97;2.03;;;;;;;-144.99;39.37;52107.72;5017578;28;20254;-75
2021/05/31 10:47:27;;;;;;;4.23;2.07;;;;;;;-144.99;39.12;52117.91;5021392;28;20215;-77
2021/05/31 10:50:03;;;;;;;5.20;2.57;;;;;;;-144.99;38.55;52093.44;5012354;28;20242;-76
2021/05/31 10:52:38;;;;;;;4.00;2.60;;;;;;;-144.99;38.15;52105.69;5003757;28;20724;-73
2021/05/31 10:55:17;;;;;;;3.40;2.70;;;;;;;-144.99;38.06;52089.38;5023649;28;20269;-75
2021/05/31 10:57:51;;;;;;;8.40;2.77;;;;;;;-144.99;38.75;52107.72;5019478;28;20224;-74
2021/05/31 11:00:31;;;;;;;6.00;2.87;;;;;;;-144.99;37.70;52089.38;5013240;28;20225;-73
2021/05/31 11:03:13;;;;;;;4.07;2.33;;;;;;;-144.99;37.95;52105.69;5015213;28;20341;-73
2021/05/31 11:05:50;;;;;;;4.77;2.83;;;;;;;-144.99;38.58;52121.97;5018688;28;20241;-76
2021/05/31 11:08:36;;;;;;;9.10;3.07;;;;;;;-144.99;39.28;52146.44;5014591;28;20210;-78
2021/05/31 11:11:08;;;;;;;3.37;2.27;;;;;;;-144.99;39.22;52130.13;5008549;28;20292;-77
2021/05/31 11:13:40;;;;;;;4.43;2.57;;;;;;;-144.99;38.97;52121.97;5017338;28;20321;-74
2021/05/31 11:16:14;;;;;;;7.20;2.80;;;;;;;-144.99;38.57;52073.06;5020367;28;20208;-76
2021/05/31 11:18:52;;;;;;;6.30;2.63;;;;;;;-144.99;37.01;52113.84;5022525;28;20290;-74
2021/05/31 11:21:35;;;;;;;5.17;2.77;;;;;;;-144.99;37.75;52101.59;5018177;28;20220;-73
2021/05/31 11:24:10;;;;;;;8.40;2.60;;;;;;;-144.99;37.59;52089.38;5016288;28;20236;-74
2021/05/31 11:26:44;;;;;;;4.00;2.53;;;;;;;-144.99;37.39;52097.53;5017376;28;20255;-76
2021/05/31 11:29:18;;;;;;;6.70;3.60;;;;;;;-144.99;36.92;52073.06;5024277;28;20300;-74
2021/05/31 11:31:53;;;;;;;4.63;2.83;;;;;;;-144.99;37.45;52073.06;5038598;28;20228;-80
2021/05/31 11:34:27;;;;;;;4.83;3.20;;;;;;;-144.99;36.37;52081.22;5042614;28;20221;-79
2021/05/31 11:37:04;;;;;;;5.77;3.67;;;;;;;-144.99;37.00;52093.44;5030958;28;20601;-78
2021/05/31 11:39:39;;;;;;;4.23;3.13;;;;;;;-144.99;36.94;52101.59;5022145;28;20220;-79
2021/05/31 11:42:15;;;;;;;3.40;2.07;;;;;;;-144.99;35.89;52060.84;5007126;28;20216;-76
2021/05/31 11:44:56;;;;;;;5.73;2.87;;;;;;;-144.99;35.79;52052.69;5012022;28;20225;-77
2021/05/31 11:47:33;;;;;;;4.50;2.13;;;;;;;-144.99;35.60;52066.97;5010199;28;20300;-77
2021/05/31 11:50:05;;;;;;;3.90;2.63;;;;;;;-144.99;35.09;52040.47;5008911;28;20220;-74
2021/05/31 11:52:41;;;;;;;8.50;3.20;;;;;;;-144.99;34.75;52005.81;5005328;28;20693;-77
2021/05/31 11:55:22;;;;;;;4.27;2.53;;;;;;;-144.99;34.37;52077.16;5009528;28;20252;-77
2021/05/31 11:57:57;;;;;;;5.60;3.17;;;;;;;-144.99;34.41;52060.84;5010372;28;20291;-77